createdAt,value
2023-01-01T00:00:38.931Z,101868.84
2023-01-01T00:01:42.812Z,101856.75
2023-01-01T00:02:46.144Z,101861.09
2023-01-01T00:03:55.936Z,101859.34
2023-01-01T00:04:59.227Z,101864.53
2023-01-01T00:06:09.460Z,101858.50
2023-01-01T00:07:12.661Z,101862.81
2023-01-01T00:08:15.766Z,101857.63
2023-01-01T00:09:37.479Z,101863.69
2023-01-01T00:10:40.239Z,101866.28
2023-01-01T00:11:42.901Z,101860.19
2023-01-01T00:12:46.353Z,101861.09
2023-01-01T00:13:49.980Z,101857.63
2023-01-01T00:14:52.795Z,101865.44
2023-01-01T00:15:55.905Z,101867.19
2023-01-01T00:16:58.744Z,101864.59
2023-01-01T00:18:01.801Z,101865.50
2023-01-01T00:19:05.484Z,101871.63
2023-01-01T00:20:08.588Z,101867.31
2023-01-01T00:21:14.810Z,101869.91
2023-01-01T00:22:52.887Z,101867.34
2023-01-01T00:23:41.550Z,101854.41
2023-01-01T00:24:44.600Z,101872.62
2023-01-01T00:25:47.334Z,101870.91
2023-01-01T00:26:50.123Z,101862.28
2023-01-01T00:27:53.621Z,101853.66
2023-01-01T00:28:56.636Z,101864.91
2023-01-01T00:29:59.492Z,101868.38
2023-01-01T00:31:19.717Z,101862.34
2023-01-01T00:32:23.183Z,101877.06
2023-01-01T00:33:26.121Z,101871.91
2023-01-01T00:34:29.606Z,101858.16
2023-01-01T00:35:33.913Z,101872.81
2023-01-01T00:36:37.300Z,101871.13
2023-01-01T00:37:46.415Z,101858.22
2023-01-01T00:38:49.824Z,101875.47
2023-01-01T00:39:53.600Z,101872.00
2023-01-01T00:40:56.307Z,101872.88
2023-01-01T00:41:59.698Z,101868.56
2023-01-01T00:43:02.504Z,101868.56
2023-01-01T00:44:05.359Z,101872.88
2023-01-01T00:45:09.392Z,101872.88
2023-01-01T00:46:13.020Z,101874.66
2023-01-01T00:47:15.915Z,101881.56
2023-01-01T00:48:19.795Z,101878.97
2023-01-01T00:49:22.857Z,101885.91
2023-01-01T00:50:26.576Z,101879.88
2023-01-01T00:51:34.876Z,101883.31
2023-01-01T00:52:40.071Z,101867.78
2023-01-01T00:53:42.866Z,101880.72
2023-01-01T00:54:45.649Z,101873.81
2023-01-01T00:55:51.166Z,101879.88
2023-01-01T00:56:53.970Z,101883.38
2023-01-01T00:57:56.841Z,101878.16
2023-01-01T00:59:00.737Z,101869.50
2023-01-01T01:00:05.971Z,101877.31
2023-01-01T01:01:11.981Z,101881.66
2023-01-01T01:02:15.118Z,101871.28
2023-01-01T01:03:31.174Z,101874.81
2023-01-01T01:04:33.924Z,101885.19
2023-01-01T01:05:39.005Z,101890.38
2023-01-01T01:06:42.503Z,101885.19
2023-01-01T01:07:45.183Z,101892.13
2023-01-01T01:08:48.411Z,101894.75
2023-01-01T01:09:51.173Z,101891.31
2023-01-01T01:10:54.773Z,101897.34
2023-01-01T01:12:17.268Z,101885.25
2023-01-01T01:13:21.113Z,101891.28
2023-01-01T01:14:23.863Z,101874.91
2023-01-01T01:15:26.581Z,101892.19
2023-01-01T01:16:34.629Z,101887.00
2023-01-01T01:17:38.647Z,101882.69
2023-01-01T01:18:41.950Z,101872.34
2023-01-01T01:19:46.374Z,101887.03
2023-01-01T01:20:53.963Z,101883.56
2023-01-01T01:21:56.970Z,101888.75
2023-01-01T01:23:00.131Z,101885.31
2023-01-01T01:24:04.130Z,101882.69
2023-01-01T01:25:07.516Z,101890.47
2023-01-01T01:26:13.569Z,101879.22
2023-01-01T01:27:17.491Z,101873.19
2023-01-01T01:28:22.716Z,101872.28
2023-01-01T01:29:25.775Z,101879.25
2023-01-01T01:30:28.543Z,101868.84
2023-01-01T01:31:32.609Z,101858.47
2023-01-01T01:32:35.643Z,101857.59
2023-01-01T01:33:38.941Z,101855.88
2023-01-01T01:34:41.837Z,101846.34
2023-01-01T01:35:52.101Z,101850.69
2023-01-01T01:36:54.947Z,101854.19
2023-01-01T01:37:58.180Z,101854.16
2023-01-01T01:39:01.419Z,101855.91
2023-01-01T01:40:05.513Z,101848.97
2023-01-01T01:41:08.834Z,101862.78
2023-01-01T01:42:18.538Z,101864.53
2023-01-01T01:43:46.907Z,101870.66
2023-01-01T01:44:57.202Z,101862.03
2023-01-01T01:46:12.698Z,101866.34
2023-01-01T01:47:32.092Z,101861.19
2023-01-01T01:48:41.200Z,101862.91
2023-01-01T01:49:45.479Z,101857.72
2023-01-01T01:50:50.250Z,101852.56
2023-01-01T01:51:54.163Z,101856.03
2023-01-01T01:53:08.717Z,101858.62
2023-01-01T01:54:17.505Z,101857.75
2023-01-01T01:55:20.846Z,101866.41
2023-01-01T01:56:59.971Z,101862.03
2023-01-01T01:58:04.727Z,101857.72
2023-01-01T01:59:07.682Z,101868.09
2023-01-01T02:00:12.115Z,101868.94
2023-01-01T02:01:15.849Z,101871.53
2023-01-01T02:02:48.404Z,101870.72
2023-01-01T02:04:00.115Z,101879.38
2023-01-01T02:05:04.255Z,101876.81
2023-01-01T02:06:07.112Z,101871.63
2023-01-01T02:07:13.852Z,101871.66
2023-01-01T02:08:16.928Z,101881.16
2023-01-01T02:09:21.116Z,101871.66
2023-01-01T02:10:23.890Z,101870.78
2023-01-01T02:11:26.674Z,101876.84
2023-01-01T02:12:30.038Z,101878.59
2023-01-01T02:13:33.070Z,101876.00
2023-01-01T02:14:35.779Z,101874.25
2023-01-01T02:15:48.607Z,101863.03
2023-01-01T02:17:00.683Z,101868.22
2023-01-01T02:18:12.035Z,101855.28
2023-01-01T02:19:41.940Z,101860.44
2023-01-01T02:22:47.004Z,101813.00
2023-01-01T02:24:27.305Z,101858.75
2023-01-01T02:25:52.388Z,101855.28
2023-01-01T02:27:01.398Z,101848.38
2023-01-01T02:28:24.098Z,101840.63
2023-01-01T02:29:36.121Z,101857.88
2023-01-01T02:30:41.862Z,101869.09
2023-01-01T02:32:09.910Z,101863.94
2023-01-01T02:33:18.398Z,101869.09
2023-01-01T02:34:25.409Z,101866.53
2023-01-01T02:35:38.871Z,101860.50
2023-01-01T02:36:48.757Z,101868.25
2023-01-01T02:37:58.100Z,101861.34
2023-01-01T02:39:04.281Z,101861.34
2023-01-01T02:40:08.104Z,101864.81
2023-01-01T02:41:16.080Z,101863.94
2023-01-01T02:42:19.873Z,101861.34
2023-01-01T02:43:24.983Z,101863.94
2023-01-01T02:44:32.352Z,101864.81
2023-01-01T02:45:35.961Z,101863.09
2023-01-01T02:46:39.386Z,101868.28
2023-01-01T02:47:42.217Z,101872.62
2023-01-01T02:48:47.420Z,101876.03
2023-01-01T02:50:00.009Z,101872.59
2023-01-01T02:51:09.747Z,101869.12
2023-01-01T02:52:42.896Z,101876.03
2023-01-01T02:54:13.091Z,101875.19
2023-01-01T02:55:32.703Z,101878.66
2023-01-01T02:56:46.234Z,101870.87
2023-01-01T02:58:31.584Z,101869.16
2023-01-01T03:00:15.003Z,101874.34
2023-01-01T03:01:35.220Z,101864.84
2023-01-01T03:03:14.110Z,101870.00
2023-01-01T03:05:05.289Z,101880.41
2023-01-01T03:06:28.173Z,101882.97
2023-01-01T03:07:56.238Z,101876.94
2023-01-01T03:09:12.760Z,101880.41
2023-01-01T03:10:23.234Z,101878.69
2023-01-01T03:11:32.928Z,101877.81
2023-01-01T03:13:07.103Z,101874.37
2023-01-01T03:14:28.077Z,101879.56
2023-01-01T03:16:04.771Z,101873.50
2023-01-01T03:17:27.530Z,101873.50
2023-01-01T03:39:06.377Z,101882.16
2023-01-01T03:40:10.793Z,101883.88
2023-01-01T03:56:52.770Z,101890.78
2023-01-01T03:58:10.606Z,101888.16
2023-01-01T03:59:31.207Z,101889.03
2023-01-01T04:00:38.153Z,101887.34
2023-01-01T04:01:45.300Z,101887.31
2023-01-01T04:03:04.425Z,101889.03
2023-01-01T04:04:08.111Z,101889.03
2023-01-01T04:05:12.472Z,101893.34
2023-01-01T04:06:16.208Z,101889.91
2023-01-01T04:07:20.616Z,101886.47
2023-01-01T04:08:23.673Z,101889.03
2023-01-01T04:09:31.562Z,101889.94
2023-01-01T04:10:38.594Z,101890.81
2023-01-01T04:12:04.246Z,101889.06
2023-01-01T04:13:07.694Z,101886.47
2023-01-01T04:14:10.441Z,101889.06
2023-01-01T04:15:14.129Z,101883.00
2023-01-01T04:16:16.966Z,101888.19
2023-01-01T04:17:19.768Z,101878.72
2023-01-01T04:18:23.179Z,101876.97
2023-01-01T04:19:26.141Z,101870.09
2023-01-01T04:20:29.000Z,101879.56
2023-01-01T04:21:32.753Z,101896.84
2023-01-01T04:22:35.952Z,101883.00
2023-01-01T04:23:39.027Z,101905.44
2023-01-01T04:24:42.492Z,101904.53
2023-01-01T04:25:45.235Z,101903.69
2023-01-01T04:26:48.776Z,101908.84
2023-01-01T04:27:51.601Z,101892.44
2023-01-01T04:28:55.083Z,101907.97
2023-01-01T04:29:57.820Z,101908.84
2023-01-01T04:31:03.020Z,101906.25
2023-01-01T04:32:06.160Z,101902.84
2023-01-01T04:33:08.895Z,101905.41
2023-01-01T04:34:12.089Z,101914.91
2023-01-01T04:35:15.196Z,101914.03
2023-01-01T04:36:18.003Z,101901.91
2023-01-01T04:37:20.782Z,101917.41
2023-01-01T04:38:24.025Z,101911.37
2023-01-01T04:39:27.019Z,101907.09
2023-01-01T04:40:29.726Z,101913.09
2023-01-01T04:41:33.285Z,101908.81
2023-01-01T04:42:35.993Z,101906.22
2023-01-01T04:43:38.736Z,101912.25
2023-01-01T04:44:42.245Z,101916.59
2023-01-01T04:45:45.067Z,101922.59
2023-01-01T04:46:48.205Z,101920.88
2023-01-01T04:47:51.095Z,101921.75
2023-01-01T04:48:54.112Z,101920.88
2023-01-01T04:49:57.160Z,101917.41
2023-01-01T04:51:02.190Z,101923.47
2023-01-01T04:52:05.678Z,101920.91
2023-01-01T04:53:08.439Z,101919.16
2023-01-01T04:54:11.204Z,101929.50
2023-01-01T04:55:14.877Z,101922.59
2023-01-01T04:56:20.448Z,101919.13
2023-01-01T04:57:23.430Z,101921.75
2023-01-01T04:58:26.763Z,101915.69
2023-01-01T04:59:31.026Z,101926.03
2023-01-01T05:00:34.014Z,101920.00
2023-01-01T05:01:36.893Z,101929.47
2023-01-01T05:02:40.312Z,101926.00
2023-01-01T05:03:43.191Z,101932.91
2023-01-01T05:04:46.017Z,101930.31
2023-01-01T05:06:02.787Z,101938.91
2023-01-01T05:07:05.680Z,101942.34
2023-01-01T05:08:08.447Z,101938.87
2023-01-01T05:09:12.084Z,101938.03
2023-01-01T05:10:15.464Z,101944.06
2023-01-01T05:11:24.010Z,101933.72
2023-01-01T05:12:26.757Z,101941.50
2023-01-01T05:13:30.378Z,101938.87
2023-01-01T05:14:33.986Z,101934.56
2023-01-01T05:15:37.493Z,101942.34
2023-01-01T05:16:41.207Z,101932.84
2023-01-01T05:17:44.218Z,101942.34
2023-01-01T05:18:47.567Z,101949.25
2023-01-01T05:19:50.867Z,101931.97
2023-01-01T05:20:53.630Z,101944.06
2023-01-01T05:21:57.241Z,101949.28
2023-01-01T05:23:00.039Z,101951.87
2023-01-01T05:24:06.934Z,101955.31
2023-01-01T05:25:10.120Z,101949.28
2023-01-01T05:26:16.156Z,101949.25
2023-01-01T05:27:19.939Z,101951.87
2023-01-01T05:28:24.114Z,101953.59
2023-01-01T05:29:27.172Z,101941.50
2023-01-01T05:30:30.883Z,101945.87
2023-01-01T05:31:36.465Z,101951.87
2023-01-01T05:32:39.829Z,101943.25
2023-01-01T05:33:43.149Z,101946.69
2023-01-01T05:34:46.878Z,101947.50
2023-01-01T05:35:55.333Z,101949.25
2023-01-01T05:36:58.852Z,101948.41
2023-01-01T05:38:04.156Z,101949.22
2023-01-01T05:39:10.109Z,101950.97
2023-01-01T05:40:13.251Z,101956.16
2023-01-01T05:41:17.434Z,101951.81
2023-01-01T05:42:20.560Z,101944.91
2023-01-01T05:43:24.372Z,101940.62
2023-01-01T05:44:27.105Z,101938.03
2023-01-01T05:45:29.824Z,101941.50
2023-01-01T05:46:33.021Z,101943.22
2023-01-01T05:47:35.827Z,101945.81
2023-01-01T05:48:39.370Z,101944.94
2023-01-01T05:49:42.156Z,101953.59
2023-01-01T05:50:48.364Z,101943.22
2023-01-01T05:51:52.110Z,101944.06
2023-01-01T05:52:55.517Z,101944.94
2023-01-01T05:53:59.216Z,101951.81
2023-01-01T05:55:03.038Z,101955.25
2023-01-01T05:56:07.531Z,101961.28
2023-01-01T05:57:10.918Z,101960.41
2023-01-01T05:58:13.767Z,101958.69
2023-01-01T05:59:16.765Z,101960.41
2023-01-01T06:00:19.839Z,101955.22
2023-01-01T06:01:26.307Z,101959.53
2023-01-01T06:02:31.612Z,101953.50
2023-01-01T06:03:35.529Z,101960.38
2023-01-01T06:04:38.371Z,101961.25
2023-01-01T06:05:41.575Z,101960.38
2023-01-01T06:06:44.598Z,101958.63
2023-01-01T06:07:48.753Z,101951.72
2023-01-01T06:08:54.430Z,101965.50
2023-01-01T06:09:57.483Z,101950.81
2023-01-01T06:11:05.377Z,101959.44
2023-01-01T06:12:08.485Z,101961.16
2023-01-01T06:13:13.572Z,101957.75
2023-01-01T06:14:16.459Z,101952.56
2023-01-01T06:15:19.135Z,101960.28
2023-01-01T06:16:22.984Z,101961.12
2023-01-01T06:17:26.098Z,101963.72
2023-01-01T06:18:34.197Z,101970.62
2023-01-01T06:19:37.237Z,101966.28
2023-01-01T06:20:40.500Z,101971.47
2023-01-01T06:21:43.216Z,101966.28
2023-01-01T06:22:46.355Z,101968.00
2023-01-01T06:23:49.891Z,101968.00
2023-01-01T06:24:52.613Z,101971.41
2023-01-01T06:25:56.540Z,101968.00
2023-01-01T06:26:59.424Z,101967.12
2023-01-01T06:28:02.834Z,101968.87
2023-01-01T06:29:05.933Z,101967.12
2023-01-01T06:30:10.043Z,101966.22
2023-01-01T06:31:15.672Z,101974.00
2023-01-01T06:32:18.714Z,101975.72
2023-01-01T06:33:21.703Z,101974.88
2023-01-01T06:34:25.287Z,101966.25
2023-01-01T06:35:28.735Z,101967.09
2023-01-01T06:36:31.862Z,101967.97
2023-01-01T06:37:34.703Z,101970.53
2023-01-01T06:38:41.093Z,101973.97
2023-01-01T06:39:43.888Z,101974.81
2023-01-01T06:41:00.848Z,101972.22
2023-01-01T06:42:03.777Z,101980.00
2023-01-01T06:43:06.547Z,101979.13
2023-01-01T06:44:09.909Z,101984.31
2023-01-01T06:45:13.436Z,101974.84
2023-01-01T06:46:19.219Z,101983.47
2023-01-01T06:47:22.087Z,101981.72
2023-01-01T06:48:25.177Z,101991.25
2023-01-01T06:49:28.262Z,101985.22
2023-01-01T06:50:31.422Z,101981.78
2023-01-01T06:51:39.838Z,101987.81
2023-01-01T06:52:42.921Z,101991.31
2023-01-01T06:53:46.468Z,101986.16
2023-01-01T06:54:49.826Z,101987.03
2023-01-01T06:55:57.375Z,101987.03
2023-01-01T06:57:00.392Z,101994.78
2023-01-01T06:58:03.117Z,101985.31
2023-01-01T06:59:06.544Z,101994.81
2023-01-01T07:00:10.357Z,101994.00
2023-01-01T07:01:19.238Z,101997.44
2023-01-01T07:02:22.339Z,101994.00
2023-01-01T07:03:25.318Z,101997.41
2023-01-01T07:04:28.103Z,102006.94
2023-01-01T07:05:31.544Z,102008.69
2023-01-01T07:06:35.518Z,102002.69
2023-01-01T07:07:38.441Z,102007.03
2023-01-01T07:08:41.254Z,102015.69
2023-01-01T07:09:43.978Z,102007.03
2023-01-01T07:10:46.994Z,102002.72
2023-01-01T07:11:50.500Z,102003.59
2023-01-01T07:12:53.185Z,102007.94
2023-01-01T07:13:56.058Z,101999.31
2023-01-01T07:14:59.272Z,102002.78
2023-01-01T07:16:08.370Z,102009.72
2023-01-01T07:17:15.630Z,102003.66
2023-01-01T07:18:19.663Z,102005.41
2023-01-01T07:19:22.819Z,102012.34
2023-01-01T07:20:25.464Z,102007.19
2023-01-01T07:21:31.250Z,102009.75
2023-01-01T07:22:35.913Z,102015.81
2023-01-01T07:23:38.756Z,102014.13
2023-01-01T07:24:42.048Z,102013.25
2023-01-01T07:25:44.920Z,102020.16
2023-01-01T07:26:49.183Z,102013.25
2023-01-01T07:27:51.897Z,102012.38
2023-01-01T07:28:55.715Z,102017.56
2023-01-01T07:30:01.493Z,102008.94
2023-01-01T07:31:04.467Z,102016.75
2023-01-01T07:32:13.204Z,102013.28
2023-01-01T07:33:19.776Z,102019.34
2023-01-01T07:34:23.969Z,102021.94
2023-01-01T07:35:26.755Z,102030.56
2023-01-01T07:36:30.138Z,102023.66
2023-01-01T07:37:33.306Z,102026.28
2023-01-01T07:38:36.507Z,102030.56
2023-01-01T07:39:39.806Z,102028.88
2023-01-01T07:40:43.158Z,102035.72
2023-01-01T07:41:45.993Z,102034.91
2023-01-01T07:42:49.372Z,102044.41
2023-01-01T07:43:52.491Z,102044.41
2023-01-01T07:44:55.194Z,102040.09
2023-01-01T07:45:59.172Z,102041.84
2023-01-01T07:47:04.926Z,102045.28
2023-01-01T07:48:13.685Z,102044.41
2023-01-01T07:49:17.301Z,102046.16
2023-01-01T07:50:21.897Z,102051.38
2023-01-01T07:51:25.139Z,102049.66
2023-01-01T07:52:28.621Z,102052.22
2023-01-01T07:53:31.666Z,102054.81
2023-01-01T07:54:34.836Z,102066.94
2023-01-01T07:55:37.856Z,102058.28
2023-01-01T07:56:40.703Z,102067.81
2023-01-01T07:57:44.401Z,102056.59
2023-01-01T07:58:47.436Z,102064.37
2023-01-01T07:59:50.296Z,102055.78
2023-01-01T08:00:53.303Z,102061.84
2023-01-01T08:01:56.844Z,102057.53
2023-01-01T08:03:00.015Z,102059.25
2023-01-01T08:04:03.862Z,102060.16
2023-01-01T08:05:07.189Z,102060.16
2023-01-01T08:06:12.228Z,102050.63
2023-01-01T08:07:15.788Z,102056.69
2023-01-01T08:08:18.491Z,102060.16
2023-01-01T08:09:21.987Z,102056.69
2023-01-01T08:10:24.819Z,102050.63
2023-01-01T08:11:28.693Z,102054.06
2023-01-01T08:12:31.937Z,102056.69
2023-01-01T08:13:35.230Z,102059.25
2023-01-01T08:14:37.983Z,102066.16
2023-01-01T08:15:41.192Z,102070.50
2023-01-01T08:16:44.043Z,102060.09
2023-01-01T08:17:48.343Z,102057.47
2023-01-01T08:18:51.171Z,102056.63
2023-01-01T08:19:54.345Z,102060.94
2023-01-01T08:20:57.689Z,102062.62
2023-01-01T08:22:00.812Z,102060.06
2023-01-01T08:23:07.433Z,102066.06
2023-01-01T08:24:11.082Z,102063.44
2023-01-01T08:25:14.544Z,102059.09
2023-01-01T08:26:26.682Z,102061.69
2023-01-01T08:27:30.000Z,102058.19
2023-01-01T08:28:33.674Z,102063.34
2023-01-01T08:29:37.066Z,102062.47
2023-01-01T08:30:41.046Z,102064.19
2023-01-01T08:31:44.623Z,102068.47
2023-01-01T08:32:49.359Z,102065.84
2023-01-01T08:33:53.097Z,102066.69
2023-01-01T08:34:56.632Z,102069.28
2023-01-01T08:36:00.166Z,102072.75
2023-01-01T08:37:03.734Z,102073.56
2023-01-01T08:38:06.482Z,102068.31
2023-01-01T08:39:10.101Z,102070.00
2023-01-01T08:40:13.843Z,102074.31
2023-01-01T08:41:17.706Z,102067.31
2023-01-01T08:42:20.820Z,102074.22
2023-01-01T08:43:23.626Z,102077.66
2023-01-01T08:44:26.617Z,102076.78
2023-01-01T08:45:29.994Z,102074.13
2023-01-01T08:46:33.687Z,102075.00
2023-01-01T08:47:36.979Z,102081.00
2023-01-01T08:48:41.228Z,102087.94
2023-01-01T08:49:45.151Z,102091.37
2023-01-01T08:51:00.321Z,102090.50
2023-01-01T08:52:03.652Z,102089.59
2023-01-01T08:53:07.154Z,102092.16
2023-01-01T08:54:10.902Z,102093.84
2023-01-01T08:55:13.907Z,102090.34
2023-01-01T08:56:17.028Z,102089.44
2023-01-01T08:57:22.956Z,102085.06
2023-01-01T08:58:26.615Z,102079.78
2023-01-01T08:59:29.446Z,102078.91
2023-01-01T09:00:32.901Z,102084.91
2023-01-01T09:01:35.731Z,102082.28
2023-01-01T09:02:38.713Z,102089.16
2023-01-01T09:03:41.828Z,102087.41
2023-01-01T09:04:44.680Z,102087.34
2023-01-01T09:05:47.847Z,102086.44
2023-01-01T09:06:51.063Z,102085.53
2023-01-01T09:07:53.796Z,102080.28
2023-01-01T09:08:57.769Z,102085.44
2023-01-01T09:10:00.548Z,102083.66
2023-01-01T09:11:04.443Z,102080.16
2023-01-01T09:12:09.294Z,102077.44
2023-01-01T09:13:13.124Z,102081.75
2023-01-01T09:14:15.898Z,102074.81
2023-01-01T09:15:18.685Z,102073.87
2023-01-01T09:16:23.087Z,102084.28
2023-01-01T09:17:26.123Z,102077.31
2023-01-01T09:18:28.929Z,102085.06
2023-01-01T09:19:31.749Z,102083.25
2023-01-01T09:20:34.726Z,102086.75
2023-01-01T09:21:37.968Z,102087.59
2023-01-01T09:22:40.729Z,102081.47
2023-01-01T09:23:43.621Z,102075.31
2023-01-01T09:24:46.301Z,102074.34
2023-01-01T09:25:49.058Z,102076.09
2023-01-01T09:26:52.129Z,102069.94
2023-01-01T09:28:01.775Z,102078.59
2023-01-01T09:29:04.635Z,102066.38
2023-01-01T09:30:08.485Z,102071.53
2023-01-01T09:31:12.756Z,102073.16
2023-01-01T09:32:15.868Z,102078.41
2023-01-01T09:33:18.745Z,102074.88
2023-01-01T09:34:22.924Z,102079.31
2023-01-01T09:35:25.737Z,102075.78
2023-01-01T09:36:31.091Z,102074.03
2023-01-01T09:37:34.832Z,102072.22
2023-01-01T09:38:38.123Z,102071.41
2023-01-01T09:39:41.010Z,102066.19
2023-01-01T09:41:11.480Z,102064.53
2023-01-01T09:42:23.405Z,102061.03
2023-01-01T09:43:32.953Z,102056.66
2023-01-01T09:44:50.069Z,102063.69
2023-01-01T09:45:59.072Z,102061.91
2023-01-01T09:47:06.077Z,102060.13
2023-01-01T09:48:13.634Z,102061.03
2023-01-01T09:49:30.443Z,102066.19
2023-01-01T09:50:40.955Z,102060.97
2023-01-01T09:51:55.580Z,102065.19
2023-01-01T09:53:07.121Z,102059.00
2023-01-01T09:54:18.804Z,102057.19
2023-01-01T09:55:42.069Z,102061.28
2023-01-01T09:56:45.988Z,102057.50
2023-01-01T09:57:48.798Z,102056.16
2023-01-01T09:58:52.228Z,102056.97
2023-01-01T09:59:56.273Z,102053.25
2023-01-01T10:01:05.870Z,102055.38
2023-01-01T10:02:34.123Z,102047.22
2023-01-01T10:03:56.449Z,102058.25
2023-01-01T10:05:41.391Z,102056.91
2023-01-01T10:06:51.820Z,102057.41
2023-01-01T10:08:10.636Z,102049.56
2023-01-01T10:09:48.653Z,102055.00
2023-01-01T10:11:23.771Z,102049.12
2023-01-01T10:12:35.907Z,102049.75
2023-01-01T10:13:43.046Z,102049.88
2023-01-01T10:15:00.548Z,102051.81
2023-01-01T10:16:11.777Z,102055.50
2023-01-01T10:17:27.843Z,102053.84
2023-01-01T10:18:34.891Z,102061.28
2023-01-01T10:19:43.990Z,102060.59
2023-01-01T10:21:24.729Z,102055.41
2023-01-01T10:22:43.141Z,102059.03
2023-01-01T10:24:00.731Z,102052.06
2023-01-01T10:25:24.994Z,102062.06
2023-01-01T10:26:30.423Z,102063.19
2023-01-01T10:27:51.274Z,102053.87
2023-01-01T10:29:03.565Z,102050.53
2023-01-01T10:30:19.451Z,102053.72
2023-01-01T10:31:31.208Z,102053.03
2023-01-01T10:32:36.614Z,102047.25
2023-01-01T10:33:40.217Z,102047.69
2023-01-01T10:34:43.129Z,102052.50
2023-01-01T10:35:50.258Z,102035.75
2023-01-01T10:36:57.776Z,102046.84
2023-01-01T10:38:02.638Z,102047.56
2023-01-01T10:39:05.765Z,102045.38
2023-01-01T10:40:24.267Z,102044.25
2023-01-01T10:41:27.506Z,102049.19
2023-01-01T10:42:30.469Z,102045.78
2023-01-01T10:43:33.905Z,102050.78
2023-01-01T10:44:37.408Z,102044.94
2023-01-01T10:45:49.515Z,102044.25
2023-01-01T10:46:58.067Z,102046.94
2023-01-01T10:48:20.163Z,102044.22
2023-01-01T10:49:23.194Z,102038.88
2023-01-01T10:50:42.714Z,102037.91
2023-01-01T10:51:48.797Z,102039.41
2023-01-01T10:52:57.291Z,102038.62
2023-01-01T10:54:00.352Z,102031.94
2023-01-01T10:55:05.432Z,102034.59
2023-01-01T10:56:11.337Z,102027.06
2023-01-01T10:57:31.369Z,102032.44
2023-01-01T10:58:37.407Z,102029.75
2023-01-01T10:59:42.073Z,102028.62
2023-01-01T11:01:01.846Z,102023.88
2023-01-01T11:02:26.989Z,102026.84
2023-01-01T11:03:30.649Z,102023.03
2023-01-01T11:04:36.744Z,102025.47
2023-01-01T11:05:39.465Z,102029.94
2023-01-01T11:06:47.512Z,102028.06
2023-01-01T11:07:50.958Z,102030.97
2023-01-01T11:08:57.997Z,102027.63
2023-01-01T11:10:05.187Z,102025.00
2023-01-01T11:11:25.614Z,102027.25
2023-01-01T11:13:03.532Z,102022.91
2023-01-01T11:14:01.417Z,102036.41
2023-01-01T11:15:06.518Z,102032.53
2023-01-01T11:16:12.132Z,102031.50
2023-01-01T11:17:22.952Z,102029.31
2023-01-01T11:18:36.539Z,102035.72
2023-01-01T11:19:48.586Z,102032.38
2023-01-01T11:20:55.457Z,102035.09
2023-01-01T11:22:00.314Z,102034.34
2023-01-01T11:23:38.760Z,102031.22
2023-01-01T11:24:41.497Z,101997.28
2023-01-01T11:25:58.127Z,102014.72
2023-01-01T11:27:25.168Z,102011.78
2023-01-01T11:28:31.650Z,102017.31
2023-01-01T11:29:34.619Z,102013.66
2023-01-01T11:30:37.490Z,102007.44
2023-01-01T11:31:40.529Z,102014.38
2023-01-01T11:32:44.020Z,102017.56
2023-01-01T11:34:02.483Z,102010.91
2023-01-01T11:35:08.012Z,102006.50
2023-01-01T11:36:11.326Z,102003.16
2023-01-01T11:37:14.494Z,102000.88
2023-01-01T11:38:29.271Z,101995.31
2023-01-01T11:39:37.364Z,101996.34
2023-01-01T11:40:47.475Z,101987.31
2023-01-01T11:41:52.429Z,101986.00
2023-01-01T11:43:02.129Z,101976.88
2023-01-01T11:44:05.278Z,101979.47
2023-01-01T11:45:39.540Z,101987.31
2023-01-01T11:46:46.300Z,101983.09
2023-01-01T11:48:17.506Z,101969.25
2023-01-01T11:49:27.244Z,101971.16
2023-01-01T11:50:34.921Z,101978.38
2023-01-01T11:51:37.705Z,101970.38
2023-01-01T11:52:49.495Z,101959.09
2023-01-01T11:54:07.917Z,101950.59
2023-01-01T11:55:17.583Z,101957.16
2023-01-01T11:56:23.830Z,101956.75
2023-01-01T11:57:27.235Z,101958.97
2023-01-01T11:58:36.740Z,101953.09
2023-01-01T11:59:52.692Z,101954.25
2023-01-01T12:01:01.667Z,101944.53
2023-01-01T12:02:11.945Z,101949.25
2023-01-01T12:03:18.017Z,101957.56
2023-01-01T12:04:33.086Z,101957.16
2023-01-01T12:06:01.380Z,101965.13
2023-01-01T12:07:06.841Z,101958.81
2023-01-01T12:08:17.034Z,101960.97
2023-01-01T12:09:51.085Z,101961.31
2023-01-01T12:11:05.640Z,101968.56
2023-01-01T12:12:31.081Z,101964.59
2023-01-01T12:13:44.783Z,101975.03
2023-01-01T12:15:05.103Z,101966.19
2023-01-01T12:16:14.322Z,101963.81
2023-01-01T12:17:26.630Z,101962.31
2023-01-01T12:18:41.088Z,101960.78
2023-01-01T12:19:54.078Z,101964.72
2023-01-01T12:21:05.376Z,101962.56
2023-01-01T12:22:17.861Z,101960.34
2023-01-01T12:23:21.084Z,101962.06
2023-01-01T12:24:29.921Z,101963.38
2023-01-01T12:26:11.707Z,101965.50
2023-01-01T12:27:24.659Z,101951.22
2023-01-01T12:28:35.869Z,101952.69
2023-01-01T12:30:02.997Z,101947.41
2023-01-01T12:31:28.494Z,101945.37
2023-01-01T12:33:08.128Z,101947.47
2023-01-01T12:34:18.855Z,101946.38
2023-01-01T12:35:44.367Z,101945.41
2023-01-01T12:36:56.022Z,101953.00
2023-01-01T12:38:13.116Z,101949.66
2023-01-01T12:39:34.904Z,101951.41
2023-01-01T12:41:02.183Z,101954.31
2023-01-01T12:42:14.425Z,101955.06
2023-01-01T12:43:43.675Z,101941.66
2023-01-01T12:45:07.042Z,101937.44
2023-01-01T12:46:24.947Z,101946.75
2023-01-01T12:47:57.050Z,101944.19
2023-01-01T12:49:15.707Z,101939.38
2023-01-01T12:50:29.173Z,101935.84
2023-01-01T12:52:05.728Z,101938.47
2023-01-01T12:53:08.478Z,101939.13
2023-01-01T12:54:35.761Z,101935.78
2023-01-01T12:56:03.453Z,101937.50
2023-01-01T12:57:29.506Z,101899.22
2023-01-01T12:58:42.537Z,101926.16
2023-01-01T12:59:50.785Z,101929.66
2023-01-01T13:01:06.268Z,101935.06
2023-01-01T13:02:22.078Z,101941.31
2023-01-01T13:03:30.349Z,101938.63
2023-01-01T13:04:33.323Z,101937.56
2023-01-01T13:05:43.812Z,101932.75
2023-01-01T13:07:06.606Z,101930.47
2023-01-01T13:08:09.976Z,101931.47
2023-01-01T13:09:29.999Z,101919.56
2023-01-01T13:10:47.259Z,101904.50
2023-01-01T13:12:10.882Z,101909.19
2023-01-01T13:13:14.984Z,101912.97
2023-01-01T13:14:18.022Z,101909.06
2023-01-01T13:15:39.547Z,101906.94
2023-01-01T13:16:49.464Z,101913.19
2023-01-01T13:17:53.444Z,101911.53
2023-01-01T13:19:02.459Z,101914.78
2023-01-01T13:20:11.602Z,101905.47
2023-01-01T13:21:21.463Z,101916.41
2023-01-01T13:22:27.147Z,101916.03
2023-01-01T13:23:30.191Z,101919.34
2023-01-01T13:24:33.337Z,101918.25
2023-01-01T13:25:36.569Z,101914.56
2023-01-01T13:26:40.662Z,101925.94
2023-01-01T13:27:56.033Z,101922.03
2023-01-01T13:28:59.151Z,101925.31
2023-01-01T13:30:02.045Z,101923.34
2023-01-01T13:31:05.323Z,101921.22
2023-01-01T13:32:09.662Z,101925.28